Time;durP1;ratioP1;P1;durP2;ratioP2;P2;SDS_P1;SDS_P2;PMS_P1;PMS_P2;Temp;Humidity;BMP_temperature;BMP_pressure;BME280_temperature;BME280_humidity;BME280_pressure;Samples;Min_cycle;Max_cycle;Signal;HPM_P1;HPM_P2
2023/09/09 00:00:52;;;;;;;15.25;13.05;;;22.20;99.90;;;;;;5020455;28;20043;-82
2023/09/09 00:03:19;;;;;;;14.93;12.95;;;22.20;99.90;;;;;;5055548;28;20025;-82
2023/09/09 00:05:45;;;;;;;13.30;12.10;;;22.10;99.90;;;;;;5032560;28;20052;-82
2023/09/09 00:08:11;;;;;;;13.43;12.07;;;22.10;99.90;;;;;;5053504;28;20057;-82
2023/09/09 00:10:38;;;;;;;15.35;12.25;;;22.10;99.90;;;;;;5035906;28;20029;-82
2023/09/09 00:13:04;;;;;;;13.45;12.15;;;22.10;99.90;;;;;;5038606;28;20021;-82
2023/09/09 00:15:31;;;;;;;14.27;12.85;;;22.10;99.90;;;;;;5055649;28;20533;-82
2023/09/09 00:17:57;;;;;;;14.35;12.93;;;22.00;99.90;;;;;;5055414;28;20012;-82
2023/09/09 00:20:35;;;;;;;13.65;12.30;;;22.00;99.90;;;;;;5055869;28;20109;-82
2023/09/09 00:23:07;;;;;;;14.27;12.80;;;22.00;99.90;;;;;;5051650;28;20448;-82
2023/09/09 00:25:40;;;;;;;14.13;12.73;;;21.90;99.90;;;;;;5036069;28;20427;-82
2023/09/09 00:28:07;;;;;;;15.48;13.95;;;22.00;99.90;;;;;;5041016;28;20024;-82
2023/09/09 00:30:33;;;;;;;15.05;13.45;;;21.90;99.90;;;;;;5029849;28;20066;-82
2023/09/09 00:33:00;;;;;;;15.48;13.88;;;21.90;99.90;;;;;;5035695;28;20403;-81
2023/09/09 00:35:26;;;;;;;15.85;14.27;;;21.90;99.90;;;;;;5024923;28;20025;-82
2023/09/09 00:37:52;;;;;;;15.48;13.88;;;21.80;99.90;;;;;;5036500;28;20025;-82
2023/09/09 00:40:18;;;;;;;14.73;13.23;;;21.80;99.90;;;;;;5011775;28;20029;-82
2023/09/09 00:42:43;;;;;;;14.25;12.95;;;21.80;99.90;;;;;;5055412;28;20033;-81
2023/09/09 00:45:10;;;;;;;15.45;13.93;;;21.80;99.90;;;;;;5043234;28;20025;-83
2023/09/09 00:47:37;;;;;;;14.93;13.23;;;21.80;99.90;;;;;;5037216;28;20071;-81
2023/09/09 00:50:09;;;;;;;14.27;12.77;;;21.80;99.90;;;;;;5059764;28;20058;-82
2023/09/09 00:52:38;;;;;;;15.25;13.65;;;21.70;99.90;;;;;;5077588;28;20024;-81
2023/09/09 00:55:04;;;;;;;15.35;13.95;;;21.70;99.90;;;;;;5052929;28;20013;-82
2023/09/09 00:57:29;;;;;;;15.93;14.32;;;21.70;99.90;;;;;;5060159;28;20051;-82
2023/09/09 00:59:55;;;;;;;16.90;15.15;;;21.70;99.90;;;;;;5057313;28;20449;-82
2023/09/09 01:02:21;;;;;;;16.55;14.98;;;21.70;99.90;;;;;;5021423;28;20411;-82
2023/09/09 01:04:48;;;;;;;17.42;15.02;;;21.70;99.90;;;;;;5022871;28;20032;-81
2023/09/09 01:07:14;;;;;;;16.58;14.88;;;21.70;99.90;;;;;;5068133;28;20047;-81
2023/09/09 01:09:40;;;;;;;17.60;15.90;;;21.60;99.90;;;;;;5022645;28;20056;-81
2023/09/09 01:12:11;;;;;;;18.58;16.00;;;21.60;99.90;;;;;;5022487;28;20032;-82
2023/09/09 01:14:40;;;;;;;18.33;16.42;;;21.60;99.90;;;;;;5066165;28;20134;-82
2023/09/09 01:17:06;;;;;;;18.08;16.27;;;21.60;99.90;;;;;;5029796;28;20048;-81
2023/09/09 01:19:32;;;;;;;16.90;15.25;;;21.60;99.90;;;;;;5041162;28;20029;-82
2023/09/09 01:22:03;;;;;;;15.90;14.23;;;21.50;99.90;;;;;;5044933;28;20171;-82
2023/09/09 01:24:29;;;;;;;16.85;15.23;;;21.50;99.90;;;;;;5038774;28;20508;-82
2023/09/09 01:26:55;;;;;;;18.17;16.30;;;21.50;99.90;;;;;;5056766;28;20086;-81
2023/09/09 01:29:22;;;;;;;16.67;15.00;;;21.50;99.90;;;;;;5061810;28;20052;-82
2023/09/09 01:31:47;;;;;;;15.57;13.98;;;21.40;99.90;;;;;;5076246;28;20020;-82
2023/09/09 01:34:13;;;;;;;16.85;15.10;;;21.40;99.90;;;;;;5040714;28;20031;-82
2023/09/09 01:36:38;;;;;;;16.42;14.77;;;21.40;99.90;;;;;;5005757;28;20017;-82
2023/09/09 01:39:05;;;;;;;16.17;14.57;;;21.40;99.90;;;;;;5005529;28;20021;-82
2023/09/09 01:41:31;;;;;;;16.30;14.80;;;21.40;99.90;;;;;;5038054;28;20076;-82
2023/09/09 01:43:57;;;;;;;17.85;15.82;;;21.40;99.90;;;;;;5038706;28;20474;-81
2023/09/09 01:46:22;;;;;;;17.85;16.08;;;21.30;99.90;;;;;;5021361;28;20017;-82
2023/09/09 01:48:48;;;;;;;17.38;15.57;;;21.30;99.90;;;;;;5038658;28;20111;-82
2023/09/09 01:51:13;;;;;;;17.65;15.85;;;21.30;99.90;;;;;;5021429;28;20053;-82
2023/09/09 01:53:39;;;;;;;18.27;16.48;;;21.30;99.90;;;;;;5071959;28;20060;-82
2023/09/09 01:56:05;;;;;;;17.27;15.52;;;21.20;99.90;;;;;;5022240;28;20016;-82
2023/09/09 01:58:30;;;;;;;17.13;15.43;;;21.20;99.90;;;;;;5005533;28;20029;-82
2023/09/09 02:00:56;;;;;;;16.30;14.75;;;21.20;99.90;;;;;;5038239;28;20427;-82
2023/09/09 02:03:22;;;;;;;17.38;15.60;;;21.20;99.90;;;;;;5040594;28;20028;-82
2023/09/09 02:05:47;;;;;;;17.35;15.65;;;21.20;99.90;;;;;;5040732;28;20078;-82
2023/09/09 02:08:13;;;;;;;16.70;15.10;;;21.10;99.90;;;;;;5040987;28;20021;-82
2023/09/09 02:10:40;;;;;;;16.70;15.00;;;21.10;99.90;;;;;;5041324;28;20528;-81
2023/09/09 02:13:05;;;;;;;16.45;14.80;;;21.10;99.90;;;;;;5046473;28;20115;-82
2023/09/09 02:15:31;;;;;;;16.63;14.93;;;21.10;99.90;;;;;;5037613;28;20115;-82
2023/09/09 02:17:57;;;;;;;16.15;14.65;;;21.00;99.90;;;;;;5021642;28;20120;-81
2023/09/09 02:20:23;;;;;;;16.75;15.18;;;21.00;99.90;;;;;;5021046;28;20028;-82
2023/09/09 02:22:49;;;;;;;16.85;14.95;;;21.00;99.90;;;;;;5055775;28;20021;-82
2023/09/09 02:25:14;;;;;;;17.13;15.35;;;21.00;99.90;;;;;;5037590;28;20449;-82
2023/09/09 02:27:40;;;;;;;17.63;15.75;;;20.90;99.90;;;;;;5021579;28;20017;-82
2023/09/09 02:30:06;;;;;;;17.08;14.50;;;20.90;99.90;;;;;;5022172;28;20464;-82
2023/09/09 02:32:32;;;;;;;15.88;14.32;;;20.90;99.90;;;;;;5051665;28;20365;-82
2023/09/09 02:34:59;;;;;;;17.35;15.57;;;21.00;99.90;;;;;;5067067;28;20017;-82
2023/09/09 02:37:26;;;;;;;18.15;16.25;;;20.90;99.90;;;;;;5029033;28;20029;-82
2023/09/09 02:39:52;;;;;;;18.42;16.65;;;20.90;99.90;;;;;;5068176;28;20028;-82
2023/09/09 02:42:23;;;;;;;18.30;16.60;;;20.90;99.90;;;;;;5073217;28;20024;-82
2023/09/09 02:44:50;;;;;;;18.83;16.73;;;20.90;99.90;;;;;;5088859;28;20091;-81
2023/09/09 02:47:16;;;;;;;18.95;17.15;;;20.80;99.90;;;;;;5077558;28;20021;-81
2023/09/09 02:49:45;;;;;;;18.55;16.85;;;20.80;99.90;;;;;;5048762;28;20035;-81
2023/09/09 02:52:11;;;;;;;18.10;16.40;;;20.80;99.90;;;;;;5022179;28;20028;-82
2023/09/09 02:54:39;;;;;;;17.92;16.13;;;20.80;99.90;;;;;;5043683;28;20094;-82
2023/09/09 02:57:05;;;;;;;17.73;16.10;;;20.80;99.90;;;;;;5038618;28;20040;-82
2023/09/09 02:59:33;;;;;;;18.65;16.65;;;20.80;99.90;;;;;;5074820;28;20035;-82
2023/09/09 03:01:59;;;;;;;18.63;16.63;;;20.80;99.90;;;;;;5049907;28;20063;-82
2023/09/09 03:04:24;;;;;;;18.67;16.67;;;20.70;99.90;;;;;;5036748;28;20504;-81
2023/09/09 03:06:50;;;;;;;19.83;17.90;;;20.80;99.90;;;;;;5020510;28;20128;-81
2023/09/09 03:09:16;;;;;;;18.95;17.10;;;20.70;99.90;;;;;;5050703;28;20028;-82
2023/09/09 03:11:42;;;;;;;19.45;17.45;;;20.70;99.90;;;;;;5074502;28;20032;-82
2023/09/09 03:14:08;;;;;;;20.67;18.58;;;20.70;99.90;;;;;;5022925;28;20452;-82
2023/09/09 03:16:35;;;;;;;20.92;18.92;;;20.70;99.90;;;;;;5013108;28;20120;-82
2023/09/09 03:19:00;;;;;;;20.35;18.25;;;20.60;99.90;;;;;;5036608;28;20435;-81
2023/09/09 03:21:26;;;;;;;21.17;18.98;;;20.70;99.90;;;;;;5036263;28;20056;-82
2023/09/09 03:23:51;;;;;;;21.25;19.15;;;20.60;99.90;;;;;;5041664;28;20046;-82
2023/09/09 03:26:19;;;;;;;21.42;19.33;;;20.60;99.90;;;;;;5039541;28;20062;-81
2023/09/09 03:28:53;;;;;;;21.25;19.08;;;20.60;99.90;;;;;;5039851;28;20111;-82
2023/09/09 03:31:19;;;;;;;21.15;19.00;;;20.60;99.90;;;;;;5056095;28;20035;-82
2023/09/09 03:33:44;;;;;;;21.38;19.27;;;20.60;99.90;;;;;;5039469;28;20024;-81
2023/09/09 03:36:10;;;;;;;20.85;18.75;;;20.50;99.90;;;;;;5074107;28;20032;-81
2023/09/09 03:38:36;;;;;;;19.67;17.48;;;20.50;99.90;;;;;;5022595;28;20020;-82
2023/09/09 03:41:06;;;;;;;19.40;17.60;;;20.50;99.90;;;;;;5035689;28;20091;-81
2023/09/09 03:43:32;;;;;;;17.92;16.15;;;20.50;99.90;;;;;;5019501;28;20024;-81
2023/09/09 03:45:58;;;;;;;19.52;17.55;;;20.50;99.90;;;;;;5058214;28;20019;-82
2023/09/09 03:48:24;;;;;;;19.27;17.27;;;20.40;99.90;;;;;;5039037;28;20456;-82
2023/09/09 03:50:50;;;;;;;20.42;18.45;;;20.40;99.90;;;;;;5040285;28;20021;-82
2023/09/09 03:53:18;;;;;;;19.33;17.48;;;20.40;99.90;;;;;;5036297;28;20025;-82
2023/09/09 03:55:44;;;;;;;20.88;18.90;;;20.40;99.90;;;;;;5073729;28;20028;-82
2023/09/09 03:58:09;;;;;;;20.42;18.52;;;20.40;99.90;;;;;;5039466;28;20029;-81
2023/09/09 04:00:37;;;;;;;18.48;16.63;;;20.40;99.90;;;;;;5033426;28;20021;-82
2023/09/09 04:03:02;;;;;;;18.95;17.15;;;20.40;99.90;;;;;;5019541;28;20056;-81
2023/09/09 04:05:28;;;;;;;18.15;16.35;;;20.30;99.90;;;;;;5023326;28;20060;-81
2023/09/09 04:07:58;;;;;;;18.05;16.25;;;20.30;99.90;;;;;;5035833;28;20025;-82
2023/09/09 04:10:23;;;;;;;19.30;17.35;;;20.30;99.90;;;;;;5036235;28;20021;-82
2023/09/09 04:12:49;;;;;;;20.08;18.08;;;20.30;99.90;;;;;;5019367;28;20017;-82
2023/09/09 04:15:15;;;;;;;19.83;17.83;;;20.30;99.90;;;;;;5019366;28;20025;-81
2023/09/09 04:17:40;;;;;;;17.83;16.05;;;20.20;99.90;;;;;;5045243;28;20031;-82
2023/09/09 04:20:08;;;;;;;17.65;15.95;;;20.20;99.90;;;;;;5037870;28;20404;-82
2023/09/09 04:22:34;;;;;;;17.42;15.57;;;20.20;99.90;;;;;;5036369;28;20130;-81
2023/09/09 04:25:00;;;;;;;17.85;16.02;;;20.20;99.90;;;;;;5055815;28;20413;-81
2023/09/09 04:27:26;;;;;;;17.20;15.30;;;20.20;99.90;;;;;;5054637;28;20016;-81
2023/09/09 04:29:52;;;;;;;17.35;15.75;;;20.20;99.90;;;;;;5055680;28;20024;-82
2023/09/09 04:32:17;;;;;;;15.95;14.35;;;20.10;99.90;;;;;;5055952;28;20524;-81
2023/09/09 04:34:44;;;;;;;16.33;14.70;;;20.10;99.90;;;;;;5033793;28;20570;-82
2023/09/09 04:37:09;;;;;;;16.08;14.57;;;20.10;99.90;;;;;;5035969;28;20099;-81
2023/09/09 04:39:35;;;;;;;15.98;14.35;;;20.10;99.90;;;;;;5039832;28;20120;-81
2023/09/09 04:42:01;;;;;;;16.73;14.52;;;20.10;99.90;;;;;;5041620;28;20048;-81
2023/09/09 04:44:26;;;;;;;15.80;14.30;;;20.10;99.90;;;;;;5057706;28;20029;-82
2023/09/09 04:46:52;;;;;;;15.90;14.30;;;20.10;99.90;;;;;;5049313;28;20032;-81
2023/09/09 04:49:18;;;;;;;16.40;14.80;;;20.00;99.90;;;;;;5059598;28;20085;-81
2023/09/09 04:51:44;;;;;;;15.90;14.40;;;20.00;99.90;;;;;;5038344;28;20028;-82
2023/09/09 04:54:09;;;;;;;17.13;15.40;;;20.00;99.90;;;;;;5022134;28;20026;-81
2023/09/09 04:56:35;;;;;;;17.13;15.43;;;20.00;99.90;;;;;;5003051;28;20470;-82
2023/09/09 04:59:01;;;;;;;16.90;15.10;;;20.00;99.90;;;;;;5006401;28;20022;-82
2023/09/09 05:01:26;;;;;;;17.10;15.40;;;20.00;99.90;;;;;;5018678;28;20044;-82
2023/09/09 05:03:52;;;;;;;17.30;15.50;;;19.90;99.90;;;;;;5051668;28;20025;-82
2023/09/09 05:06:17;;;;;;;17.27;15.57;;;19.90;99.90;;;;;;5051778;28;20365;-82
2023/09/09 05:08:43;;;;;;;18.30;16.45;;;19.90;99.90;;;;;;5026955;28;20029;-82
2023/09/09 05:11:10;;;;;;;19.85;17.95;;;19.90;99.90;;;;;;5051763;28;20064;-82
2023/09/09 05:13:35;;;;;;;20.58;18.63;;;19.90;99.90;;;;;;5052240;28;20128;-82
2023/09/09 05:16:01;;;;;;;20.98;18.90;;;19.90;99.90;;;;;;5035087;28;20527;-82
2023/09/09 05:18:27;;;;;;;22.90;20.60;;;19.80;99.90;;;;;;5051462;28;20103;-82
2023/09/09 05:20:52;;;;;;;24.17;21.70;;;19.90;99.90;;;;;;5038420;28;20362;-82
2023/09/09 05:23:18;;;;;;;29.25;25.67;;;19.90;99.90;;;;;;5031722;28;20031;-82
2023/09/09 05:25:43;;;;;;;33.58;30.08;;;19.90;99.90;;;;;;5031256;28;20029;-83
2023/09/09 05:28:09;;;;;;;47.75;33.75;;;20.00;99.90;;;;;;5031698;28;20026;-82
2023/09/09 05:30:39;;;;;;;39.38;35.15;;;20.00;99.90;;;;;;5049232;28;20025;-82
2023/09/09 05:33:05;;;;;;;38.28;34.22;;;20.00;99.90;;;;;;5050503;28;20048;-83
2023/09/09 05:35:30;;;;;;;54.50;36.45;;;20.00;99.90;;;;;;5033704;28;20369;-82
2023/09/09 05:37:56;;;;;;;43.60;35.97;;;20.10;99.90;;;;;;5031222;28;20037;-82
2023/09/09 05:40:22;;;;;;;74.38;36.20;;;20.10;99.90;;;;;;5000729;28;20412;-82
2023/09/09 05:42:48;;;;;;;52.63;34.92;;;20.20;99.90;;;;;;5047941;28;20074;-82
2023/09/09 05:45:14;;;;;;;69.10;34.25;;;20.20;99.90;;;;;;5054942;28;20354;-82
2023/09/09 05:47:42;;;;;;;51.47;33.40;;;20.20;99.90;;;;;;5054582;28;20075;-82
2023/09/09 05:50:08;;;;;;;36.95;32.30;;;20.30;99.90;;;;;;5048236;28;20222;-83
2023/09/09 05:52:34;;;;;;;56.13;32.30;;;20.30;99.90;;;;;;5045029;28;20056;-82
2023/09/09 05:54:59;;;;;;;38.88;32.13;;;20.30;99.90;;;;;;5054654;28;20466;-82
2023/09/09 05:57:25;;;;;;;50.92;31.85;;;20.30;99.90;;;;;;5038316;28;20025;-82
2023/09/09 05:59:51;;;;;;;37.88;31.17;;;20.40;99.90;;;;;;5037622;28;20593;-82
2023/09/09 06:02:16;;;;;;;50.97;33.75;;;20.30;99.90;;;;;;5037677;28;20055;-82
2023/09/09 06:04:42;;;;;;;41.50;31.65;;;20.30;99.90;;;;;;5018205;28;20017;-82
2023/09/09 06:07:08;;;;;;;37.55;30.20;;;20.30;99.90;;;;;;5054324;28;20075;-82
2023/09/09 06:09:33;;;;;;;47.15;30.95;;;20.30;99.90;;;;;;5021206;28;20071;-82
2023/09/09 06:11:59;;;;;;;35.50;31.70;;;20.30;99.90;;;;;;5054409;28;20029;-82
2023/09/09 06:14:24;;;;;;;36.95;31.13;;;20.30;99.90;;;;;;5024609;28;20079;-82
2023/09/09 06:16:50;;;;;;;36.78;31.58;;;20.30;99.90;;;;;;5034116;28;20036;-82
2023/09/09 06:19:16;;;;;;;34.88;30.95;;;20.30;99.90;;;;;;5018159;28;20248;-82
2023/09/09 06:21:41;;;;;;;34.25;30.80;;;20.30;99.90;;;;;;5018335;28;20026;-83
2023/09/09 06:24:08;;;;;;;36.10;31.30;;;20.30;99.90;;;;;;5049150;28;20048;-82
2023/09/09 06:26:34;;;;;;;36.45;30.50;;;20.40;99.90;;;;;;5047566;28;20041;-82
2023/09/09 06:29:00;;;;;;;34.65;31.08;;;20.30;99.90;;;;;;5044307;28;20364;-82
2023/09/09 06:31:26;;;;;;;33.53;30.15;;;20.30;99.90;;;;;;5041505;28;20057;-82
2023/09/09 06:33:52;;;;;;;37.60;30.92;;;20.30;99.90;;;;;;5060970;28;20036;-83
2023/09/09 06:36:20;;;;;;;35.20;31.55;;;20.30;99.90;;;;;;5049403;28;20017;-83
2023/09/09 06:38:46;;;;;;;45.67;31.92;;;20.30;99.90;;;;;;5062286;28;20019;-82
2023/09/09 06:41:13;;;;;;;47.28;32.67;;;20.40;99.90;;;;;;5058207;28;20114;-83
2023/09/09 06:43:39;;;;;;;37.45;32.00;;;20.30;99.90;;;;;;5033771;28;20089;-83
2023/09/09 06:46:04;;;;;;;37.85;32.85;;;20.30;99.90;;;;;;5054754;28;20399;-83
2023/09/09 06:48:30;;;;;;;42.45;32.38;;;20.30;99.90;;;;;;5042655;28;20044;-85
2023/09/09 06:50:56;;;;;;;36.42;32.60;;;20.40;99.90;;;;;;5036958;28;20120;-86
2023/09/09 06:53:24;;;;;;;35.72;32.33;;;20.40;99.90;;;;;;5037927;28;20112;-83
2023/09/09 06:55:50;;;;;;;47.88;32.55;;;20.40;99.90;;;;;;5022894;28;20025;-83
2023/09/09 06:58:16;;;;;;;36.70;33.15;;;20.40;99.90;;;;;;5042276;28;20035;-82
2023/09/09 07:00:48;;;;;;;37.90;34.20;;;20.40;99.90;;;;;;5023580;28;20028;-83
2023/09/09 07:03:14;;;;;;;36.58;33.10;;;20.50;99.90;;;;;;5046746;28;20128;-84
2023/09/09 07:05:39;;;;;;;54.00;36.10;;;20.50;99.90;;;;;;5028043;28;20502;-83
2023/09/09 07:08:05;;;;;;;43.60;36.13;;;20.50;99.90;;;;;;5054950;28;20025;-83
2023/09/09 07:10:31;;;;;;;38.20;34.60;;;20.50;99.90;;;;;;5042119;28;20044;-83
2023/09/09 07:12:56;;;;;;;40.05;35.38;;;20.50;99.90;;;;;;5032793;28;20036;-83
2023/09/09 07:15:22;;;;;;;41.00;36.90;;;20.50;99.90;;;;;;5003894;28;20029;-82
2023/09/09 07:17:48;;;;;;;40.45;36.25;;;20.60;99.90;;;;;;5016443;28;20503;-83
2023/09/09 07:20:15;;;;;;;39.38;35.50;;;20.50;99.90;;;;;;5033274;28;20076;-84
2023/09/09 07:22:41;;;;;;;39.65;35.65;;;20.60;99.90;;;;;;5033021;28;20100;-82
2023/09/09 07:25:07;;;;;;;43.65;39.20;;;20.60;99.90;;;;;;5016895;28;20049;-82
2023/09/09 07:27:33;;;;;;;44.28;38.97;;;20.60;99.90;;;;;;5023765;28;20021;-82
2023/09/09 07:29:59;;;;;;;43.65;38.90;;;20.70;99.90;;;;;;5052725;28;20025;-82
2023/09/09 07:32:25;;;;;;;49.25;40.85;;;20.70;99.90;;;;;;5035948;28;20086;-83
2023/09/09 07:34:51;;;;;;;55.03;40.95;;;20.80;99.90;;;;;;5036077;28;20025;-82
2023/09/09 07:37:17;;;;;;;48.95;42.63;;;20.80;99.90;;;;;;5053560;28;20237;-82
2023/09/09 07:39:49;;;;;;;55.50;44.17;;;20.80;99.90;;;;;;5035235;28;20026;-82
2023/09/09 07:42:15;;;;;;;50.78;44.30;;;20.80;99.90;;;;;;5032367;28;20042;-82
2023/09/09 07:44:41;;;;;;;57.38;46.80;;;20.90;99.90;;;;;;5034053;28;20024;-82
2023/09/09 07:47:07;;;;;;;51.40;44.08;;;20.90;99.90;;;;;;5019444;28;20043;-82
2023/09/09 07:49:36;;;;;;;64.97;47.58;;;21.00;99.90;;;;;;5035906;28;20184;-82
2023/09/09 07:52:05;;;;;;;51.30;45.38;;;21.00;99.90;;;;;;5052344;28;20096;-84
2023/09/09 07:54:31;;;;;;;52.28;46.45;;;21.10;99.90;;;;;;5019794;28;20111;-83
2023/09/09 07:56:58;;;;;;;56.10;46.85;;;21.10;99.90;;;;;;5052270;28;20016;-82
2023/09/09 07:59:28;;;;;;;59.20;49.78;;;21.10;99.90;;;;;;5052308;28;20031;-82
2023/09/09 08:01:54;;;;;;;59.55;49.67;;;21.20;99.90;;;;;;5035194;28;20021;-83
2023/09/09 08:04:20;;;;;;;60.47;50.53;;;21.20;99.90;;;;;;5049270;28;20084;-83
2023/09/09 08:06:46;;;;;;;61.60;51.42;;;21.30;99.90;;;;;;5042902;28;20480;-82
2023/09/09 08:09:13;;;;;;;60.92;50.70;;;21.30;99.90;;;;;;5032378;28;20021;-82
2023/09/09 08:11:39;;;;;;;59.28;51.38;;;21.40;99.90;;;;;;5032413;28;20014;-82
2023/09/09 08:14:04;;;;;;;60.08;51.38;;;21.40;99.90;;;;;;5032233;28;20052;-82
2023/09/09 08:16:33;;;;;;;56.85;49.50;;;21.50;99.90;;;;;;5033623;28;20024;-82
2023/09/09 08:19:00;;;;;;;58.67;49.63;;;21.50;99.90;;;;;;5033431;28;20048;-82
2023/09/09 08:21:25;;;;;;;61.13;50.17;;;21.50;99.90;;;;;;5018061;28;20040;-82
2023/09/09 08:23:52;;;;;;;64.60;53.33;;;21.60;99.90;;;;;;5032428;28;20445;-82
2023/09/09 08:26:18;;;;;;;57.95;48.97;;;21.60;99.90;;;;;;5050605;28;20021;-82
2023/09/09 08:28:43;;;;;;;60.50;51.85;;;21.70;99.90;;;;;;5036522;28;20475;-83
2023/09/09 08:31:09;;;;;;;62.08;52.22;;;21.80;99.90;;;;;;5051437;28;20040;-82
2023/09/09 08:33:35;;;;;;;59.50;51.40;;;21.80;99.90;;;;;;5056811;28;20032;-83
2023/09/09 08:36:03;;;;;;;56.42;50.28;;;21.90;99.90;;;;;;5045314;28;20029;-83
2023/09/09 08:38:29;;;;;;;60.65;51.13;;;21.90;99.90;;;;;;5057816;28;20025;-82
2023/09/09 08:41:04;;;;;;;59.20;52.08;;;22.00;99.90;;;;;;5080227;28;20100;-83
2023/09/09 08:43:36;;;;;;;55.60;49.08;;;22.00;99.90;;;;;;5074681;28;20056;-82
2023/09/09 08:46:13;;;;;;;57.00;50.67;;;22.10;99.90;;;;;;5069265;28;20048;-83
2023/09/09 08:48:41;;;;;;;55.03;48.47;;;22.20;99.90;;;;;;5049260;28;20106;-82
2023/09/09 08:51:13;;;;;;;60.95;51.88;;;22.20;99.90;;;;;;5018737;28;20095;-82
2023/09/09 08:53:40;;;;;;;61.03;52.13;;;22.20;99.90;;;;;;5053305;28;20021;-82
2023/09/09 08:56:06;;;;;;;59.67;50.97;;;22.30;99.90;;;;;;5053054;28;20083;-83
2023/09/09 08:58:32;;;;;;;59.42;50.92;;;22.40;99.90;;;;;;5053723;28;20021;-83
2023/09/09 09:00:59;;;;;;;54.72;48.47;;;22.40;99.90;;;;;;5071776;28;20460;-83
2023/09/09 09:03:26;;;;;;;56.88;50.72;;;22.50;99.90;;;;;;5049044;28;20029;-83
2023/09/09 09:05:54;;;;;;;54.83;48.75;;;22.50;99.90;;;;;;5035159;28;20017;-83
2023/09/09 09:08:19;;;;;;;56.75;50.70;;;22.60;99.90;;;;;;5043328;28;20452;-83
2023/09/09 09:10:47;;;;;;;58.80;51.72;;;22.60;99.90;;;;;;5064117;28;20029;-83
2023/09/09 09:13:13;;;;;;;60.92;52.70;;;22.70;99.90;;;;;;5052589;28;20013;-82
2023/09/09 09:15:39;;;;;;;55.50;49.25;;;22.70;99.90;;;;;;5009133;28;20373;-83
2023/09/09 09:18:05;;;;;;;59.13;50.95;;;22.80;99.90;;;;;;5005798;28;20025;-83
2023/09/09 09:20:33;;;;;;;59.95;51.45;;;22.80;99.90;;;;;;5075670;28;20025;-83
2023/09/09 09:23:01;;;;;;;53.35;46.50;;;22.90;99.90;;;;;;5044961;28;20025;-83
2023/09/09 09:25:28;;;;;;;54.22;47.65;;;22.90;99.90;;;;;;5038638;28;20488;-84
2023/09/09 09:27:57;;;;;;;55.38;46.65;;;23.00;99.90;;;;;;5056974;28;20025;-83
2023/09/09 09:30:25;;;;;;;52.92;45.72;;;23.10;99.90;;;;;;5056522;28;20017;-83
2023/09/09 09:32:54;;;;;;;51.40;45.80;;;23.10;99.90;;;;;;5027697;28;20107;-83
2023/09/09 09:35:27;;;;;;;47.08;42.05;;;23.20;99.90;;;;;;5048226;28;20017;-83
2023/09/09 09:38:01;;;;;;;49.10;43.55;;;23.30;99.90;;;;;;5044108;28;20020;-83
2023/09/09 09:40:29;;;;;;;49.40;42.45;;;23.30;99.90;;;;;;5052207;28;20052;-83
2023/09/09 09:42:55;;;;;;;52.15;45.22;;;23.40;99.90;;;;;;5050013;28;20526;-83
2023/09/09 09:45:25;;;;;;;51.72;43.67;;;23.50;99.90;;;;;;5058036;28;20024;-83
2023/09/09 09:47:51;;;;;;;46.83;40.13;;;23.50;99.90;;;;;;5042039;28;20024;-84
2023/09/09 09:50:32;;;;;;;45.70;39.17;;;23.60;99.90;;;;;;5056366;28;20032;-83
2023/09/09 09:52:58;;;;;;;;;;;23.60;99.90;;;;;;5055309;28;20025;-83
2023/09/09 09:55:24;;;;;;;47.08;39.28;;;23.70;99.90;;;;;;5067892;28;19901;-82
2023/09/09 09:57:57;;;;;;;44.85;39.92;;;23.80;99.90;;;;;;5038026;28;20056;-83
2023/09/09 10:00:24;;;;;;;41.60;36.53;;;23.80;99.90;;;;;;5037564;28;20534;-83
2023/09/09 10:02:56;;;;;;;41.60;36.72;;;23.90;99.90;;;;;;5020406;28;20025;-83
2023/09/09 10:05:24;;;;;;;42.60;37.67;;;23.90;99.90;;;;;;5055476;28;20021;-83
2023/09/09 10:07:58;;;;;;;37.70;33.60;;;24.00;99.90;;;;;;5021511;28;20021;-83
2023/09/09 10:10:24;;;;;;;37.22;32.22;;;24.10;99.90;;;;;;5037999;28;20429;-83
2023/09/09 10:13:12;;;;;;;37.05;33.05;;;24.10;99.90;;;;;;5038309;28;20021;-83
2023/09/09 10:15:39;;;;;;;33.08;29.55;;;24.20;99.90;;;;;;5038178;28;20171;-84
2023/09/09 10:18:06;;;;;;;34.10;30.52;;;24.20;99.90;;;;;;5037711;28;20459;-87
2023/09/09 10:20:33;;;;;;;35.17;30.83;;;24.30;99.90;;;;;;5027533;28;20122;-84
2023/09/09 10:23:00;;;;;;;33.35;29.77;;;24.40;99.90;;;;;;5046045;28;20391;-77
2023/09/09 10:25:35;;;;;;;34.35;30.85;;;24.50;99.90;;;;;;5060709;28;20020;-77
2023/09/09 10:28:03;;;;;;;30.55;27.42;;;24.50;99.90;;;;;;5041204;28;20025;-76
2023/09/09 10:30:30;;;;;;;32.88;29.48;;;24.60;99.90;;;;;;5065891;28;20071;-76
2023/09/09 10:32:59;;;;;;;30.45;26.67;;;24.60;99.90;;;;;;5060344;28;20009;-76
2023/09/09 10:35:26;;;;;;;28.10;25.20;;;24.70;99.90;;;;;;5069598;28;20032;-76
2023/09/09 10:37:55;;;;;;;24.48;21.95;;;24.80;99.90;;;;;;5097239;28;20040;-76
2023/09/09 10:40:21;;;;;;;24.92;22.27;;;24.80;99.90;;;;;;5091225;28;20029;-76
2023/09/09 10:42:47;;;;;;;26.00;21.52;;;24.90;99.90;;;;;;5084472;28;20027;-77
2023/09/09 10:45:30;;;;;;;22.20;19.85;;;25.00;99.90;;;;;;5080585;28;20052;-76
2023/09/09 10:48:03;;;;;;;21.73;19.45;;;25.00;99.90;;;;;;5061750;28;20025;-77
2023/09/09 10:50:45;;;;;;;22.23;19.83;;;25.00;99.90;;;;;;5054984;28;20076;-76
2023/09/09 10:53:28;;;;;;;21.25;19.15;;;25.10;99.90;;;;;;5061012;28;20017;-76
2023/09/09 10:55:56;;;;;;;20.23;18.23;;;25.10;99.90;;;;;;5057076;28;20077;-76
2023/09/09 10:58:33;;;;;;;23.27;19.55;;;25.10;99.90;;;;;;5051830;28;20025;-76
2023/09/09 11:00:59;;;;;;;22.83;20.42;;;25.20;99.90;;;;;;5066888;28;20067;-76
2023/09/09 11:03:36;;;;;;;23.63;21.27;;;25.30;99.90;;;;;;5056917;28;20077;-76
2023/09/09 11:06:05;;;;;;;21.67;19.38;;;25.30;99.90;;;;;;5074504;28;20043;-76
2023/09/09 11:08:35;;;;;;;23.85;21.35;;;25.40;99.90;;;;;;5065863;28;20082;-87
2023/09/09 11:11:11;;;;;;;20.45;18.38;;;25.40;99.90;;;;;;5037483;28;20036;-88
2023/09/09 11:13:51;;;;;;;22.73;20.38;;;25.50;99.90;;;;;;5037273;28;20138;-88
2023/09/09 11:16:40;;;;;;;20.83;18.83;;;25.50;99.90;;;;;;5037129;28;20031;-88
2023/09/09 11:19:11;;;;;;;17.80;16.07;;;25.60;99.90;;;;;;5055665;28;20017;-89
2023/09/09 11:21:43;;;;;;;20.27;18.23;;;25.70;99.90;;;;;;5021570;28;20287;-89
2023/09/09 11:24:09;;;;;;;21.25;19.02;;;25.70;99.90;;;;;;5066331;28;20028;-88
2023/09/09 11:26:47;;;;;;;19.80;17.83;;;25.80;99.90;;;;;;5057161;28;20108;-89
2023/09/09 11:29:13;;;;;;;21.77;19.65;;;25.80;99.90;;;;;;5057039;28;20119;-88
2023/09/09 11:31:39;;;;;;;18.30;16.50;;;25.90;99.90;;;;;;5056732;28;20031;-88
2023/09/09 11:34:06;;;;;;;16.98;15.23;;;25.90;99.90;;;;;;5037258;28;20523;-88
2023/09/09 11:36:32;;;;;;;17.75;15.95;;;26.00;99.90;;;;;;5020146;28;20029;-88
2023/09/09 11:38:59;;;;;;;18.40;16.55;;;26.10;99.90;;;;;;5034668;28;20048;-88
2023/09/09 11:41:30;;;;;;;16.88;15.10;;;26.10;99.90;;;;;;5036791;28;20049;-89
2023/09/09 11:44:07;;;;;;;16.90;15.10;;;26.10;99.90;;;;;;5024963;28;20083;-88
2023/09/09 11:46:47;;;;;;;15.13;13.55;;;26.10;99.90;;;;;;5020219;28;20119;-88
2023/09/09 11:49:16;;;;;;;14.55;13.10;;;26.20;99.90;;;;;;5038649;28;20045;-88
2023/09/09 11:51:41;;;;;;;14.43;13.05;;;26.20;99.90;;;;;;5074583;28;20031;-88
2023/09/09 11:54:10;;;;;;;13.82;12.43;;;26.30;99.90;;;;;;5063841;28;20020;-89
2023/09/09 11:56:36;;;;;;;12.82;11.52;;;26.40;99.90;;;;;;5051386;28;20016;-88
2023/09/09 11:59:09;;;;;;;11.57;10.48;;;26.40;99.90;;;;;;5047284;28;20368;-88
2023/09/09 12:01:42;;;;;;;11.30;10.15;;;26.50;99.90;;;;;;5036453;28;20045;-87
2023/09/09 12:04:08;;;;;;;11.55;10.30;;;26.50;99.90;;;;;;5031961;28;20083;-89
2023/09/09 12:06:35;;;;;;;10.40;9.23;;;26.60;99.90;;;;;;5039505;28;20465;-88
2023/09/09 12:09:05;;;;;;;10.10;9.10;;;26.60;99.90;;;;;;5068698;28;20027;-76
2023/09/09 12:11:32;;;;;;;9.90;8.90;;;26.70;99.90;;;;;;5019379;28;20111;-76
2023/09/09 12:14:00;;;;;;;8.95;8.15;;;26.70;99.70;;;;;;5035765;28;20048;-76
2023/09/09 12:16:28;;;;;;;8.45;7.65;;;26.70;99.60;;;;;;5053160;28;20009;-76
2023/09/09 12:18:53;;;;;;;8.50;6.57;;;26.80;99.60;;;;;;5064820;28;20029;-76
2023/09/09 12:21:19;;;;;;;7.45;6.75;;;26.80;99.60;;;;;;5054838;28;20029;-76
2023/09/09 12:23:46;;;;;;;8.30;7.38;;;26.80;99.60;;;;;;5055828;28;20039;-76
2023/09/09 12:26:15;;;;;;;8.60;7.22;;;26.80;99.60;;;;;;5073112;28;20457;-78
2023/09/09 12:28:47;;;;;;;7.65;6.90;;;26.90;99.60;;;;;;5057310;28;20017;-76